Time;durP1;ratioP1;P1;durP2;ratioP2;P2;SDS_P1;SDS_P2;PMS_P1;PMS_P2;Temp;Humidity;BMP_temperature;BMP_pressure;BME280_temperature;BME280_humidity;BME280_pressure;Samples;Min_cycle;Max_cycle;Signal;HPM_P1;HPM_P2
2022/04/13 00:00:36;;;;;;;1553.72;999.90;;;;;;;;;;4981069;28;20372;-55
2022/04/13 00:03:02;;;;;;;1557.22;999.90;;;;;;;;;;4979486;28;20581;-55
2022/04/13 00:05:27;;;;;;;1553.72;999.90;;;;;;;;;;4979247;28;20911;-56
2022/04/13 00:07:53;;;;;;;1556.07;999.90;;;;;;;;;;4980002;28;20557;-56
2022/04/13 00:10:18;;;;;;;1554.97;999.90;;;;;;;;;;4979610;28;20093;-55
2022/04/13 00:12:44;;;;;;;1552.35;999.90;;;;;;;;;;4950222;28;20125;-56
2022/04/13 00:15:09;;;;;;;1546.23;999.90;;;;;;;;;;4980946;28;20296;-56
2022/04/13 00:17:35;;;;;;;1555.22;999.90;;;;;;;;;;4964167;28;20300;-55
2022/04/13 00:20:00;;;;;;;1551.72;999.90;;;;;;;;;;4978888;28;20129;-55
2022/04/13 00:22:25;;;;;;;1551.67;999.90;;;;;;;;;;4980021;28;20105;-55
2022/04/13 00:24:50;;;;;;;1552.95;999.90;;;;;;;;;;4976547;28;20657;-55
2022/04/13 00:27:16;;;;;;;1556.82;999.90;;;;;;;;;;4981732;28;20042;-56
2022/04/13 00:29:41;;;;;;;1550.40;999.90;;;;;;;;;;4983016;28;20050;-55
2022/04/13 00:32:07;;;;;;;1555.15;999.90;;;;;;;;;;4984622;28;20097;-60
2022/04/13 00:34:34;;;;;;;1555.07;999.90;;;;;;;;;;4983919;28;20038;-55
2022/04/13 00:36:59;;;;;;;1552.00;999.90;;;;;;;;;;4954878;28;20058;-55
2022/04/13 00:39:24;;;;;;;1551.47;999.90;;;;;;;;;;4984830;28;20468;-56
2022/04/13 00:41:57;;;;;;;1551.07;999.90;;;;;;;;;;4969413;28;20050;-55
2022/04/13 00:44:22;;;;;;;1552.88;999.90;;;;;;;;;;4986392;28;20042;-55
2022/04/13 00:46:47;;;;;;;1551.45;999.90;;;;;;;;;;4984977;28;20633;-55
2022/04/13 00:49:12;;;;;;;1551.80;999.90;;;;;;;;;;4983486;28;20108;-54
2022/04/13 00:51:37;;;;;;;1551.90;999.90;;;;;;;;;;4967291;28;20052;-54
2022/04/13 00:54:04;;;;;;;1549.93;999.90;;;;;;;;;;4985909;28;20276;-55
2022/04/13 00:56:29;;;;;;;1549.43;999.90;;;;;;;;;;4976654;28;20298;-59
2022/04/13 00:58:55;;;;;;;1550.43;999.90;;;;;;;;;;4958482;28;20046;-54
2022/04/13 01:01:21;;;;;;;1553.20;999.90;;;;;;;;;;4985599;28;20038;-55
2022/04/13 01:03:46;;;;;;;1551.88;999.90;;;;;;;;;;4965722;28;20068;-55
2022/04/13 01:06:11;;;;;;;1550.20;999.90;;;;;;;;;;4983561;28;20074;-56
2022/04/13 01:08:37;;;;;;;1547.33;999.90;;;;;;;;;;4984893;28;20369;-55
2022/04/13 01:11:02;;;;;;;1552.85;999.90;;;;;;;;;;4967549;28;20384;-55
2022/04/13 01:13:27;;;;;;;1552.77;999.90;;;;;;;;;;4986070;28;20053;-57
2022/04/13 01:15:52;;;;;;;1552.73;999.90;;;;;;;;;;4981232;28;20757;-55
2022/04/13 01:18:19;;;;;;;1549.17;999.90;;;;;;;;;;4975624;28;21045;-54
2022/04/13 01:20:52;;;;;;;1552.97;999.90;;;;;;;;;;4983166;28;20284;-55
2022/04/13 01:23:18;;;;;;;1556.43;999.90;;;;;;;;;;4982191;28;20049;-55
2022/04/13 01:25:47;;;;;;;1546.05;999.90;;;;;;;;;;4967271;28;20042;-55
2022/04/13 01:28:13;;;;;;;1552.45;999.90;;;;;;;;;;4980541;28;20054;-54
2022/04/13 01:30:38;;;;;;;1552.82;999.90;;;;;;;;;;4981148;28;20480;-53
2022/04/13 01:33:03;;;;;;;1548.85;999.90;;;;;;;;;;4970453;28;20137;-53
2022/04/13 01:35:30;;;;;;;1552.78;999.90;;;;;;;;;;4983040;28;20760;-53
2022/04/13 01:37:55;;;;;;;1550.68;999.90;;;;;;;;;;4965711;28;20108;-53
2022/04/13 01:40:20;;;;;;;1548.63;999.90;;;;;;;;;;4983063;28;20331;-53
2022/04/13 01:42:47;;;;;;;1551.15;999.90;;;;;;;;;;4983216;28;20701;-54
2022/04/13 01:45:19;;;;;;;1550.00;999.90;;;;;;;;;;4979717;28;20042;-54
2022/04/13 01:47:45;;;;;;;1551.43;999.90;;;;;;;;;;4977939;28;20050;-53
2022/04/13 01:50:10;;;;;;;1550.75;999.90;;;;;;;;;;4978993;28;20062;-54
2022/04/13 01:52:35;;;;;;;1543.83;999.90;;;;;;;;;;4972796;28;20031;-53
2022/04/13 01:55:00;;;;;;;1548.00;999.90;;;;;;;;;;4983735;28;20329;-54
2022/04/13 01:57:26;;;;;;;1547.60;999.90;;;;;;;;;;4968167;28;20326;-52
2022/04/13 01:59:51;;;;;;;1551.07;999.90;;;;;;;;;;4965730;28;20102;-53
2022/04/13 02:02:16;;;;;;;1552.07;999.90;;;;;;;;;;4983530;28;20266;-51
2022/04/13 02:04:42;;;;;;;1547.90;999.90;;;;;;;;;;4962977;28;20293;-53
2022/04/13 02:07:07;;;;;;;1550.93;999.90;;;;;;;;;;4982918;28;20523;-54
2022/04/13 02:09:32;;;;;;;1557.10;999.90;;;;;;;;;;4984279;28;20048;-54
2022/04/13 02:11:58;;;;;;;1549.17;999.90;;;;;;;;;;4981571;28;20121;-53
2022/04/13 02:14:23;;;;;;;1548.50;999.90;;;;;;;;;;4963209;28;20529;-54
2022/04/13 02:16:48;;;;;;;1552.20;999.90;;;;;;;;;;4962087;28;20046;-52
2022/04/13 02:19:13;;;;;;;1552.95;999.90;;;;;;;;;;4977083;28;20050;-53
2022/04/13 02:21:39;;;;;;;1546.22;999.90;;;;;;;;;;4982944;28;20437;-54
2022/04/13 02:24:05;;;;;;;1553.55;999.90;;;;;;;;;;4974852;28;20121;-51
2022/04/13 02:26:30;;;;;;;1552.10;999.90;;;;;;;;;;4980903;28;20050;-53
2022/04/13 02:28:55;;;;;;;1557.10;999.90;;;;;;;;;;4978096;28;20038;-54
2022/04/13 02:31:21;;;;;;;1551.53;999.90;;;;;;;;;;4975112;28;20293;-54
2022/04/13 02:33:47;;;;;;;1554.97;999.90;;;;;;;;;;4979941;28;20524;-54
2022/04/13 02:36:12;;;;;;;1547.07;999.90;;;;;;;;;;4980228;28;20078;-53
2022/04/13 02:38:38;;;;;;;1551.60;999.90;;;;;;;;;;4978054;28;20517;-53
2022/04/13 02:41:04;;;;;;;1539.40;999.90;;;;;;;;;;4965840;28;20038;-54
2022/04/13 02:43:29;;;;;;;1548.15;999.90;;;;;;;;;;4983951;28;20365;-54
2022/04/13 02:45:55;;;;;;;1554.90;999.90;;;;;;;;;;4982723;28;20749;-53
2022/04/13 02:48:21;;;;;;;1553.35;999.90;;;;;;;;;;4977255;28;20348;-53
2022/04/13 02:50:46;;;;;;;1547.85;999.90;;;;;;;;;;4982111;28;20073;-53
2022/04/13 02:53:12;;;;;;;1550.57;999.90;;;;;;;;;;4982726;28;20042;-54
2022/04/13 02:55:37;;;;;;;1551.53;999.90;;;;;;;;;;4981690;28;20113;-53
2022/04/13 02:58:02;;;;;;;1545.13;999.90;;;;;;;;;;4968276;28;20058;-53
2022/04/13 03:00:27;;;;;;;1552.63;999.90;;;;;;;;;;4981977;28;20034;-53
2022/04/13 03:02:53;;;;;;;1552.30;999.90;;;;;;;;;;4964079;28;20063;-52
2022/04/13 03:05:18;;;;;;;1555.32;999.90;;;;;;;;;;4978903;28;20584;-51
2022/04/13 03:07:44;;;;;;;1552.35;999.90;;;;;;;;;;4979050;28;20568;-51
2022/04/13 03:10:09;;;;;;;1548.50;999.90;;;;;;;;;;4964036;28;20038;-54
2022/04/13 03:12:34;;;;;;;1548.13;999.90;;;;;;;;;;4981225;28;20265;-53
2022/04/13 03:15:01;;;;;;;1546.22;999.90;;;;;;;;;;4975619;28;20045;-54
2022/04/13 03:17:27;;;;;;;1545.88;999.90;;;;;;;;;;4981724;28;20034;-53
2022/04/13 03:19:52;;;;;;;1547.97;999.90;;;;;;;;;;4982575;28;20038;-53
2022/04/13 03:22:17;;;;;;;1545.75;999.90;;;;;;;;;;4983018;28;20121;-54
2022/04/13 03:24:42;;;;;;;1545.63;999.90;;;;;;;;;;4981574;28;20034;-52
2022/04/13 03:27:09;;;;;;;1543.45;999.90;;;;;;;;;;4981830;28;20270;-55
2022/04/13 03:29:34;;;;;;;1552.22;999.90;;;;;;;;;;4981210;28;20037;-58
2022/04/13 03:31:59;;;;;;;1549.10;999.90;;;;;;;;;;4962983;28;20042;-54
2022/04/13 03:34:24;;;;;;;1542.70;999.90;;;;;;;;;;4979504;28;20065;-54
2022/04/13 03:36:50;;;;;;;1545.72;999.90;;;;;;;;;;4983336;28;20124;-54
2022/04/13 03:39:15;;;;;;;1542.63;999.90;;;;;;;;;;4983495;28;20509;-53
2022/04/13 03:41:40;;;;;;;1536.50;999.90;;;;;;;;;;4964432;28;20169;-53
2022/04/13 03:44:06;;;;;;;1540.43;999.90;;;;;;;;;;4980595;28;20129;-54
2022/04/13 03:46:31;;;;;;;1542.70;999.90;;;;;;;;;;4984050;28;20293;-55
2022/04/13 03:48:56;;;;;;;1543.45;999.90;;;;;;;;;;4982769;28;20521;-53
2022/04/13 03:51:22;;;;;;;1545.32;999.90;;;;;;;;;;4981297;28;20023;-55
2022/04/13 03:53:47;;;;;;;1549.28;999.90;;;;;;;;;;4982802;28;20094;-53
2022/04/13 03:56:13;;;;;;;1546.50;999.90;;;;;;;;;;4982787;28;20154;-54
2022/04/13 03:58:40;;;;;;;1540.85;999.90;;;;;;;;;;4984632;28;19960;-53
2022/04/13 04:01:06;;;;;;;1539.10;999.90;;;;;;;;;;4987136;28;20113;-54
2022/04/13 04:03:31;;;;;;;1540.50;999.90;;;;;;;;;;4985840;28;20285;-55
2022/04/13 04:05:57;;;;;;;1543.25;999.90;;;;;;;;;;4985088;28;20030;-54
2022/04/13 04:08:23;;;;;;;1544.22;999.90;;;;;;;;;;4986649;28;20042;-54
2022/04/13 04:10:48;;;;;;;1539.38;999.90;;;;;;;;;;4971960;28;20100;-54
2022/04/13 04:13:14;;;;;;;1546.32;999.90;;;;;;;;;;4989982;28;20125;-53
2022/04/13 04:15:39;;;;;;;1543.07;999.90;;;;;;;;;;4987566;28;20038;-56
2022/04/13 04:18:06;;;;;;;1543.20;999.90;;;;;;;;;;4980777;28;20097;-55
2022/04/13 04:20:31;;;;;;;1544.63;999.90;;;;;;;;;;4986745;28;20038;-54
2022/04/13 04:22:56;;;;;;;1543.13;999.90;;;;;;;;;;4985935;28;20022;-54
2022/04/13 04:25:21;;;;;;;1538.93;999.90;;;;;;;;;;4963023;28;20302;-55
2022/04/13 04:27:47;;;;;;;1540.18;999.90;;;;;;;;;;4983710;28;20062;-53
2022/04/13 04:30:12;;;;;;;1539.60;999.90;;;;;;;;;;4984767;28;20029;-56
2022/04/13 04:32:37;;;;;;;1536.73;999.90;;;;;;;;;;4980367;28;20633;-55
2022/04/13 04:35:03;;;;;;;1538.40;999.90;;;;;;;;;;4977441;28;20824;-54
2022/04/13 04:37:29;;;;;;;1543.93;999.90;;;;;;;;;;4974087;28;20361;-54
2022/04/13 04:39:54;;;;;;;1543.65;999.90;;;;;;;;;;4983056;28;20053;-54
2022/04/13 04:42:19;;;;;;;1542.05;999.90;;;;;;;;;;4976492;28;20122;-57
2022/04/13 04:44:46;;;;;;;1538.88;999.90;;;;;;;;;;4984001;28;20038;-54
2022/04/13 04:47:11;;;;;;;1544.00;999.90;;;;;;;;;;4988328;28;20045;-54
2022/04/13 04:49:36;;;;;;;1546.30;999.90;;;;;;;;;;4967696;28;20038;-53
2022/04/13 04:52:01;;;;;;;1546.65;999.90;;;;;;;;;;4981239;28;20062;-54
2022/04/13 04:54:27;;;;;;;1544.68;999.90;;;;;;;;;;4982722;28;20458;-54
2022/04/13 04:56:52;;;;;;;1551.47;999.90;;;;;;;;;;4986972;28;20355;-54
2022/04/13 04:59:17;;;;;;;1546.73;999.90;;;;;;;;;;4995286;28;20034;-55
2022/04/13 05:01:42;;;;;;;1548.33;999.90;;;;;;;;;;4994717;28;20277;-56
2022/04/13 05:04:08;;;;;;;1547.93;999.90;;;;;;;;;;4987564;28;20339;-55
2022/04/13 05:06:33;;;;;;;1547.97;999.90;;;;;;;;;;4973416;28;20121;-54
2022/04/13 05:08:58;;;;;;;1549.95;999.90;;;;;;;;;;4992195;28;19926;-52
2022/04/13 05:11:24;;;;;;;1532.25;999.90;;;;;;;;;;4983816;28;20031;-53
2022/04/13 05:13:49;;;;;;;1533.53;999.90;;;;;;;;;;4994707;28;20030;-55
2022/04/13 05:16:15;;;;;;;1539.27;999.90;;;;;;;;;;4979311;28;19921;-56
2022/04/13 05:18:40;;;;;;;1514.75;999.90;;;;;;;;;;4984023;28;19929;-57
2022/04/13 05:21:06;;;;;;;1522.25;999.90;;;;;;;;;;4986177;28;19916;-56
2022/04/13 05:23:31;;;;;;;1525.40;999.90;;;;;;;;;;4984588;28;20042;-56
2022/04/13 05:25:59;;;;;;;1532.05;999.90;;;;;;;;;;4978358;28;20556;-55
2022/04/13 05:28:25;;;;;;;1525.90;999.90;;;;;;;;;;4961001;28;19910;-57
2022/04/13 05:30:50;;;;;;;;;;;;;;;;;;4975561;28;19914;-58
2022/04/13 05:33:20;;;;;;;1512.10;999.90;;;;;;;;;;4981938;28;20266;-57
2022/04/13 05:35:48;;;;;;;1519.00;999.90;;;;;;;;;;4980721;28;20086;-55
2022/04/13 05:38:13;;;;;;;1534.93;999.90;;;;;;;;;;4982992;28;20615;-56
2022/04/13 05:40:38;;;;;;;1529.43;999.90;;;;;;;;;;4981857;28;20038;-57
2022/04/13 05:43:04;;;;;;;1514.00;999.90;;;;;;;;;;4971584;28;20285;-56
2022/04/13 05:45:29;;;;;;;1529.80;999.90;;;;;;;;;;4964244;28;20580;-57
2022/04/13 05:47:54;;;;;;;1535.65;999.90;;;;;;;;;;4966425;28;20027;-56
2022/04/13 05:50:20;;;;;;;1523.57;999.90;;;;;;;;;;4982374;28;20671;-57
2022/04/13 05:52:45;;;;;;;1524.90;999.90;;;;;;;;;;4982456;28;20061;-55
2022/04/13 05:55:10;;;;;;;1512.93;999.90;;;;;;;;;;4980961;28;20269;-55
2022/04/13 05:57:36;;;;;;;1512.15;999.90;;;;;;;;;;4976461;28;20046;-56
2022/04/13 06:00:01;;;;;;;1513.50;999.90;;;;;;;;;;4975614;28;20068;-52
2022/04/13 06:02:27;;;;;;;1537.90;999.90;;;;;;;;;;4978329;28;20085;-56
2022/04/13 06:04:52;;;;;;;1532.00;999.90;;;;;;;;;;4980679;28;20034;-56
2022/04/13 06:07:17;;;;;;;1532.03;999.90;;;;;;;;;;4981924;28;20276;-55
2022/04/13 06:09:43;;;;;;;1537.30;999.90;;;;;;;;;;4974434;28;20044;-56
2022/04/13 06:12:09;;;;;;;1530.30;999.90;;;;;;;;;;4978230;28;20038;-52
2022/04/13 06:14:34;;;;;;;1531.15;999.90;;;;;;;;;;4975157;28;20055;-53
2022/04/13 06:17:00;;;;;;;;;;;;;;;;;;4983270;28;20031;-53
2022/04/13 06:19:25;;;;;;;;;;;;;;;;;;4981487;28;20291;-52
2022/04/13 06:21:50;;;;;;;1527.40;999.90;;;;;;;;;;4980565;28;19917;-54
2022/04/13 06:24:16;;;;;;;1526.50;999.90;;;;;;;;;;4982524;28;20241;-54
2022/04/13 06:26:41;;;;;;;1496.43;999.90;;;;;;;;;;4962571;28;20117;-51
2022/04/13 06:29:07;;;;;;;1504.15;999.90;;;;;;;;;;4971622;28;20227;-54
2022/04/13 06:31:32;;;;;;;1513.60;999.90;;;;;;;;;;4973807;28;20088;-55
2022/04/13 06:33:57;;;;;;;1515.20;999.90;;;;;;;;;;4978836;28;20247;-53
2022/04/13 06:36:23;;;;;;;1515.63;999.90;;;;;;;;;;4983537;28;20018;-53
2022/04/13 06:38:48;;;;;;;1517.00;999.90;;;;;;;;;;4980657;28;20049;-52
2022/04/13 06:41:13;;;;;;;1525.25;999.90;;;;;;;;;;4979034;28;20055;-54
2022/04/13 06:43:39;;;;;;;1520.30;999.90;;;;;;;;;;4980720;28;20065;-54
2022/04/13 06:46:04;;;;;;;1516.30;999.90;;;;;;;;;;4978813;28;20273;-54
2022/04/13 06:48:29;;;;;;;1505.80;999.90;;;;;;;;;;4977747;28;20053;-55
2022/04/13 06:50:54;;;;;;;1519.90;999.90;;;;;;;;;;4975830;28;20494;-53
2022/04/13 06:53:20;;;;;;;1529.15;999.90;;;;;;;;;;4979828;28;20101;-54
2022/04/13 06:55:47;;;;;;;1507.80;999.90;;;;;;;;;;4978271;28;20317;-55
2022/04/13 06:58:12;;;;;;;1512.70;999.90;;;;;;;;;;4978933;28;20187;-55
2022/04/13 07:00:38;;;;;;;1531.03;999.90;;;;;;;;;;4976735;28;20542;-54
2022/04/13 07:03:03;;;;;;;1520.68;999.90;;;;;;;;;;4977216;28;20026;-55
2022/04/13 07:05:28;;;;;;;1508.90;999.90;;;;;;;;;;4979752;28;20035;-52
2022/04/13 07:07:57;;;;;;;1509.80;999.90;;;;;;;;;;4978209;28;20247;-55
2022/04/13 07:10:22;;;;;;;1501.17;999.90;;;;;;;;;;4979565;28;20721;-54
2022/04/13 07:12:47;;;;;;;1499.40;999.90;;;;;;;;;;4976603;28;20154;-51
2022/04/13 07:15:16;;;;;;;1504.70;999.90;;;;;;;;;;4966155;28;20113;-55
2022/04/13 07:17:42;;;;;;;1494.20;999.90;;;;;;;;;;4976582;28;20685;-50
2022/04/13 07:20:07;;;;;;;1506.30;999.90;;;;;;;;;;4979367;28;20092;-52
2022/04/13 07:22:33;;;;;;;1492.47;999.90;;;;;;;;;;4979960;28;20037;-55
2022/04/13 07:24:58;;;;;;;1485.33;999.90;;;;;;;;;;4976998;28;20116;-52
2022/04/13 07:27:23;;;;;;;1499.63;999.90;;;;;;;;;;4975265;28;24112;-54
2022/04/13 07:29:48;;;;;;;1492.90;999.90;;;;;;;;;;4979523;28;20059;-54
2022/04/13 07:32:14;;;;;;;1490.20;999.90;;;;;;;;;;4959826;28;19963;-54
2022/04/13 07:34:39;;;;;;;1514.10;999.90;;;;;;;;;;4977329;28;20243;-56
2022/04/13 07:37:04;;;;;;;1511.20;999.90;;;;;;;;;;4977270;28;20367;-54
2022/04/13 07:39:30;;;;;;;1522.95;999.90;;;;;;;;;;4977788;28;20739;-52
2022/04/13 07:41:55;;;;;;;;;;;;;;;;;;4977520;28;20315;-54
2022/04/13 07:44:21;;;;;;;1524.10;999.90;;;;;;;;;;4979420;28;20057;-55
2022/04/13 07:46:46;;;;;;;1529.10;999.90;;;;;;;;;;4978839;28;20765;-51
2022/04/13 07:49:12;;;;;;;1518.45;999.90;;;;;;;;;;4976627;28;20608;-53
2022/04/13 07:51:40;;;;;;;1507.05;999.90;;;;;;;;;;4975532;28;20309;-53
2022/04/13 07:54:06;;;;;;;1520.30;999.90;;;;;;;;;;4978266;28;20086;-53
2022/04/13 07:56:31;;;;;;;1523.70;999.90;;;;;;;;;;4977437;28;20026;-56
2022/04/13 07:58:57;;;;;;;1504.70;999.90;;;;;;;;;;4978973;28;25075;-54
2022/04/13 08:01:22;;;;;;;1522.20;999.90;;;;;;;;;;4980884;28;20058;-56
2022/04/13 08:03:47;;;;;;;1525.50;999.90;;;;;;;;;;4974552;28;20034;-54
2022/04/13 08:06:13;;;;;;;1484.10;999.90;;;;;;;;;;4977982;28;20904;-55
2022/04/13 08:08:38;;;;;;;1495.57;999.90;;;;;;;;;;4981126;28;20823;-54
2022/04/13 08:11:04;;;;;;;1499.13;999.90;;;;;;;;;;4980144;28;20023;-55
2022/04/13 08:13:30;;;;;;;1499.18;999.90;;;;;;;;;;4949156;28;20051;-54
2022/04/13 08:15:55;;;;;;;1503.60;999.90;;;;;;;;;;4976098;28;20474;-56
2022/04/13 08:18:20;;;;;;;1503.90;999.90;;;;;;;;;;4980519;28;20902;-56
2022/04/13 08:20:45;;;;;;;1512.47;999.90;;;;;;;;;;4962183;28;20026;-55
2022/04/13 08:23:11;;;;;;;1512.53;999.90;;;;;;;;;;4978256;28;20470;-55
2022/04/13 08:25:36;;;;;;;1516.07;999.90;;;;;;;;;;4979285;28;20026;-56
2022/04/13 08:28:01;;;;;;;1516.30;999.90;;;;;;;;;;4977738;28;20429;-55
2022/04/13 08:30:27;;;;;;;1524.18;999.90;;;;;;;;;;4978996;28;20026;-56
2022/04/13 08:32:52;;;;;;;1516.90;999.90;;;;;;;;;;4979155;28;20096;-56
2022/04/13 08:35:17;;;;;;;1506.75;999.90;;;;;;;;;;4975640;28;20156;-55
2022/04/13 08:37:43;;;;;;;1506.47;999.90;;;;;;;;;;4981259;28;20026;-55
2022/04/13 08:40:09;;;;;;;1515.95;999.90;;;;;;;;;;4981359;28;20388;-55
2022/04/13 08:42:53;;;;;;;1516.25;999.90;;;;;;;;;;4960764;28;20548;-55
2022/04/13 08:45:22;;;;;;;1494.43;999.90;;;;;;;;;;4986712;28;20045;-55
2022/04/13 08:47:49;;;;;;;1523.97;999.90;;;;;;;;;;4976703;28;19918;-56
2022/04/13 08:50:14;;;;;;;1497.00;999.90;;;;;;;;;;4961270;28;20092;-55
2022/04/13 08:52:40;;;;;;;1534.30;999.90;;;;;;;;;;4975321;28;20026;-55
2022/04/13 08:55:09;;;;;;;1534.10;999.90;;;;;;;;;;4976050;28;20557;-55
2022/04/13 08:57:36;;;;;;;1527.80;999.90;;;;;;;;;;4982405;28;20043;-56
2022/04/13 09:00:05;;;;;;;1527.55;999.90;;;;;;;;;;4985485;28;20042;-56
2022/04/13 09:02:49;;;;;;;1522.18;999.90;;;;;;;;;;4961502;28;20072;-55
2022/04/13 09:05:19;;;;;;;1517.85;999.90;;;;;;;;;;4981202;28;20713;-55
2022/04/13 09:07:52;;;;;;;1547.97;999.90;;;;;;;;;;4985873;28;20042;-55
2022/04/13 09:10:20;;;;;;;1532.93;999.90;;;;;;;;;;4984533;28;20366;-56
2022/04/13 09:12:46;;;;;;;1531.30;999.90;;;;;;;;;;4965408;28;20502;-55
2022/04/13 09:15:11;;;;;;;1531.80;999.90;;;;;;;;;;4983411;28;20275;-56
2022/04/13 09:17:37;;;;;;;1535.55;999.90;;;;;;;;;;4983265;28;20030;-56
2022/04/13 09:20:02;;;;;;;1529.00;999.90;;;;;;;;;;4982160;28;20053;-55
2022/04/13 09:22:28;;;;;;;1545.07;999.90;;;;;;;;;;4971151;28;20060;-55
2022/04/13 09:24:54;;;;;;;1544.15;999.90;;;;;;;;;;4974147;28;20256;-55
2022/04/13 09:27:20;;;;;;;1545.85;999.90;;;;;;;;;;4974656;28;20043;-55
2022/04/13 09:29:46;;;;;;;1536.20;999.90;;;;;;;;;;4980620;28;20049;-53
2022/04/13 09:32:11;;;;;;;1547.15;999.90;;;;;;;;;;4983074;28;20512;-52
2022/04/13 09:34:36;;;;;;;1530.95;999.90;;;;;;;;;;4973851;28;20030;-53
2022/04/13 09:37:02;;;;;;;1530.85;999.90;;;;;;;;;;4978534;28;20121;-55
2022/04/13 09:39:27;;;;;;;1536.68;999.90;;;;;;;;;;4981221;28;20046;-56
2022/04/13 09:41:52;;;;;;;1535.50;999.90;;;;;;;;;;4980818;28;20041;-55
2022/04/13 09:44:18;;;;;;;1532.43;999.90;;;;;;;;;;4963041;28;20086;-55
2022/04/13 09:46:43;;;;;;;1519.25;999.90;;;;;;;;;;4982750;28;20573;-54
2022/04/13 09:49:08;;;;;;;1526.68;999.90;;;;;;;;;;4980135;28;19913;-56
2022/04/13 09:51:34;;;;;;;1522.80;999.90;;;;;;;;;;4984179;28;19909;-55
2022/04/13 09:54:03;;;;;;;1525.32;999.90;;;;;;;;;;4985032;28;20296;-55
2022/04/13 09:56:28;;;;;;;1524.07;999.90;;;;;;;;;;4980884;28;19983;-55
2022/04/13 09:58:54;;;;;;;1525.03;999.90;;;;;;;;;;4977639;28;20034;-54
2022/04/13 10:01:20;;;;;;;1522.70;999.90;;;;;;;;;;4979218;28;20058;-54
2022/04/13 10:03:57;;;;;;;1529.53;999.90;;;;;;;;;;4962822;28;20038;-57
2022/04/13 10:06:29;;;;;;;1534.32;999.90;;;;;;;;;;4981056;28;20038;-54
2022/04/13 10:09:01;;;;;;;1529.00;999.90;;;;;;;;;;4980204;28;20117;-54
2022/04/13 10:11:26;;;;;;;1533.55;999.90;;;;;;;;;;4980882;28;20126;-55
2022/04/13 10:13:51;;;;;;;1533.70;999.90;;;;;;;;;;4966891;28;20114;-54
2022/04/13 10:16:16;;;;;;;1529.00;999.90;;;;;;;;;;4981386;28;20016;-54
2022/04/13 10:18:55;;;;;;;1535.30;999.90;;;;;;;;;;4982103;28;20332;-54
2022/04/13 10:21:33;;;;;;;1557.00;999.90;;;;;;;;;;4962920;28;20140;-54
2022/04/13 10:23:58;;;;;;;1559.03;999.90;;;;;;;;;;4974861;28;20665;-55
2022/04/13 10:26:23;;;;;;;1548.30;999.90;;;;;;;;;;4981092;28;20136;-56
2022/04/13 10:28:49;;;;;;;1541.90;999.90;;;;;;;;;;4964130;28;20576;-54
2022/04/13 10:31:14;;;;;;;1539.35;999.90;;;;;;;;;;4981987;28;20252;-57
2022/04/13 10:33:49;;;;;;;1550.75;999.90;;;;;;;;;;4953523;28;20074;-56
2022/04/13 10:36:15;;;;;;;1546.70;999.90;;;;;;;;;;4982660;28;20046;-55
2022/04/13 10:38:40;;;;;;;1541.18;999.90;;;;;;;;;;4982181;28;20112;-55
2022/04/13 10:41:05;;;;;;;1541.45;999.90;;;;;;;;;;4982910;28;20030;-55
2022/04/13 10:43:30;;;;;;;1538.63;999.90;;;;;;;;;;4964338;28;20049;-53
2022/04/13 10:45:56;;;;;;;1528.60;999.90;;;;;;;;;;4983345;28;20269;-55
2022/04/13 10:48:27;;;;;;;1544.35;999.90;;;;;;;;;;4983945;28;20328;-55
2022/04/13 10:50:53;;;;;;;1536.65;999.90;;;;;;;;;;4985118;28;20057;-54
2022/04/13 10:53:25;;;;;;;1537.67;999.90;;;;;;;;;;4984115;28;20038;-56
2022/04/13 10:56:00;;;;;;;1566.20;999.90;;;;;;;;;;4980397;28;19922;-55
2022/04/13 10:58:40;;;;;;;1542.43;999.90;;;;;;;;;;4993177;28;20291;-53
2022/04/13 11:01:06;;;;;;;1545.90;999.90;;;;;;;;;;4995869;28;20414;-53
2022/04/13 11:03:36;;;;;;;1552.30;999.90;;;;;;;;;;4993263;28;20034;-55
2022/04/13 11:06:01;;;;;;;;;;;;;;;;;;4988053;28;19924;-55
2022/04/13 11:08:30;;;;;;;1550.45;999.90;;;;;;;;;;4988648;28;20133;-59
2022/04/13 11:10:56;;;;;;;1545.60;999.90;;;;;;;;;;4991590;28;19952;-54
2022/04/13 11:13:21;;;;;;;1556.85;999.90;;;;;;;;;;4967686;28;20026;-55
2022/04/13 11:15:48;;;;;;;1535.37;999.90;;;;;;;;;;4979946;28;20736;-53
2022/04/13 11:18:14;;;;;;;1532.87;999.90;;;;;;;;;;4974585;28;20042;-56
2022/04/13 11:20:58;;;;;;;1542.50;999.90;;;;;;;;;;4962930;28;20348;-55
2022/04/13 11:23:23;;;;;;;1523.22;999.90;;;;;;;;;;4978060;28;20030;-54
2022/04/13 11:25:58;;;;;;;1521.25;999.90;;;;;;;;;;4981460;28;20030;-50
2022/04/13 11:28:24;;;;;;;1514.78;999.90;;;;;;;;;;4978326;28;20027;-53
2022/04/13 11:31:09;;;;;;;1516.70;999.90;;;;;;;;;;4952066;28;20053;-54
2022/04/13 11:33:41;;;;;;;1527.28;999.90;;;;;;;;;;4979791;28;20046;-55
2022/04/13 11:36:07;;;;;;;1530.10;999.90;;;;;;;;;;4964279;28;20129;-56
2022/04/13 11:38:36;;;;;;;1518.07;999.90;;;;;;;;;;4981468;28;20125;-57
2022/04/13 11:41:05;;;;;;;1514.32;999.90;;;;;;;;;;4979240;28;20026;-55
2022/04/13 11:43:31;;;;;;;1513.82;999.90;;;;;;;;;;4981097;28;19919;-54
2022/04/13 11:45:57;;;;;;;1525.43;999.90;;;;;;;;;;4981404;28;20030;-55
2022/04/13 11:48:32;;;;;;;1530.90;999.90;;;;;;;;;;4963759;28;20049;-56
2022/04/13 11:51:16;;;;;;;1561.00;999.90;;;;;;;;;;4981272;28;20269;-55
2022/04/13 11:53:54;;;;;;;1554.20;999.90;;;;;;;;;;4982858;28;20077;-56
2022/04/13 11:56:19;;;;;;;;;;;;;;;;;;4963329;28;20494;-56
2022/04/13 11:58:44;;;;;;;1543.30;999.90;;;;;;;;;;4971754;28;24084;-55
2022/04/13 12:01:11;;;;;;;1543.20;999.90;;;;;;;;;;4970957;28;20069;-55
2022/04/13 12:03:42;;;;;;;1498.70;999.90;;;;;;;;;;4965104;28;20012;-55
2022/04/13 12:06:15;;;;;;;1518.30;999.90;;;;;;;;;;4962473;28;20584;-56
2022/04/13 12:08:42;;;;;;;1514.20;999.90;;;;;;;;;;4947406;28;20077;-54
2022/04/13 12:11:08;;;;;;;1508.50;999.90;;;;;;;;;;4981751;28;20070;-55
2022/04/13 12:13:46;;;;;;;1515.10;999.90;;;;;;;;;;4968393;28;20042;-54
2022/04/13 12:16:15;;;;;;;1517.95;999.90;;;;;;;;;;4978425;28;20037;-54
2022/04/13 12:18:40;;;;;;;1508.23;999.90;;;;;;;;;;4980288;28;19921;-55
2022/04/13 12:21:07;;;;;;;1515.80;999.90;;;;;;;;;;4964443;28;20045;-55
2022/04/13 12:23:34;;;;;;;1507.05;999.90;;;;;;;;;;4982004;28;20076;-55
2022/04/13 12:25:59;;;;;;;1504.60;999.90;;;;;;;;;;4982256;28;20037;-56
2022/04/13 12:28:24;;;;;;;1520.25;999.90;;;;;;;;;;4982210;28;19918;-54
2022/04/13 12:31:03;;;;;;;1545.15;999.90;;;;;;;;;;4983971;28;19917;-54
2022/04/13 12:33:29;;;;;;;1512.22;999.90;;;;;;;;;;4967177;28;20541;-55
2022/04/13 12:36:01;;;;;;;1511.13;999.90;;;;;;;;;;4965776;28;20030;-56
2022/04/13 12:38:34;;;;;;;1510.38;999.90;;;;;;;;;;4984451;28;20069;-55
2022/04/13 12:41:05;;;;;;;1518.20;999.90;;;;;;;;;;4975241;28;20038;-52
2022/04/13 12:43:31;;;;;;;1516.30;999.90;;;;;;;;;;4986646;28;20065;-55
2022/04/13 12:45:57;;;;;;;1518.22;999.90;;;;;;;;;;4985478;28;20513;-56
2022/04/13 12:48:26;;;;;;;1523.15;999.90;;;;;;;;;;4967487;28;20518;-54
2022/04/13 12:50:57;;;;;;;1514.57;999.90;;;;;;;;;;4985357;28;20026;-53
2022/04/13 12:53:22;;;;;;;1508.00;999.90;;;;;;;;;;4985268;28;20154;-58
2022/04/13 12:55:57;;;;;;;1506.15;999.90;;;;;;;;;;4952270;28;20138;-57
2022/04/13 12:58:22;;;;;;;1503.35;999.90;;;;;;;;;;4982723;28;20066;-58
2022/04/13 13:00:56;;;;;;;1509.47;999.90;;;;;;;;;;4986114;28;20073;-57
2022/04/13 13:03:21;;;;;;;;;;;;;;;;;;4985283;28;20030;-56
2022/04/13 13:05:47;;;;;;;1505.30;999.90;;;;;;;;;;4981724;28;19917;-58
2022/04/13 13:08:12;;;;;;;1510.65;999.90;;;;;;;;;;4965275;28;20285;-56
2022/04/13 13:10:38;;;;;;;1528.20;999.90;;;;;;;;;;4981993;28;20731;-58
2022/04/13 13:13:10;;;;;;;1533.60;999.90;;;;;;;;;;4947861;28;20045;-56
2022/04/13 13:15:36;;;;;;;1503.47;999.90;;;;;;;;;;4984527;28;20116;-56
2022/04/13 13:18:07;;;;;;;1508.38;999.90;;;;;;;;;;4979048;28;20505;-56
2022/04/13 13:20:33;;;;;;;1497.03;999.90;;;;;;;;;;4977735;28;20638;-55
2022/04/13 13:23:00;;;;;;;1500.35;999.90;;;;;;;;;;4967122;28;20045;-56
2022/04/13 13:25:28;;;;;;;1499.65;999.90;;;;;;;;;;4945710;28;20556;-57
2022/04/13 13:27:56;;;;;;;1506.95;999.90;;;;;;;;;;4981928;28;20038;-57
2022/04/13 13:30:21;;;;;;;1499.72;999.90;;;;;;;;;;4978982;28;20093;-57
2022/04/13 13:32:46;;;;;;;1499.72;999.90;;;;;;;;;;4978513;28;20026;-57
2022/04/13 13:35:12;;;;;;;1496.93;999.90;;;;;;;;;;4982141;28;20588;-57
2022/04/13 13:37:40;;;;;;;1497.97;999.90;;;;;;;;;;4981936;28;20655;-56
2022/04/13 13:40:25;;;;;;;1504.60;999.90;;;;;;;;;;4981964;28;20046;-56